Olib — 9AA6266 — position and weather

sailwx.info

Track history (hours):
 
Tides and Currents Weather Stations Pressure Air Temp Water Temp Dewpoint Dewpoint Depression Visibility Wind Speed Wind Dir Waves Ship Positions

Olib

Last reported at 2016-Jun-23 02:19 UTC. Time now 2016-Jun-25 00:00 UTC.
Position N 37°13' E 023°50'.

Length 247 m; draft 14.3 m.

Type: Ship. MMSI: 238252000.

Date/timePositionNaut miles runAvg speedWind from/ knotsBaromVisibWave heightAir tempDewpointWater temp
2016-Jun-23 02:19N 37°13' E 023°50'1013.1
2016-Jun-23 01:33N 37°21' E 023°57'2613.2
2016-Jun-22 23:33N 37°44' E 024°14'1313.1
2016-Jun-22 22:33N 37°51' E 024°27'  
2016-Jun-19 18:20N 44°33' E 037°39'4 5.1
2016-Jun-19 17:32N 44°36' E 037°43'1 0.5
2016-Jun-19 16:33N 44°36' E 037°44'1 1.4
2016-Jun-19 15:33N 44°36' E 037°42'1 0.9
2016-Jun-19 14:33N 44°37' E 037°43'1 1.2
2016-Jun-19 13:33N 44°36' E 037°42'2 0.1
2016-Jun-18 20:31N 44°35' E 037°39'4 4.5
2016-Jun-18 19:34N 44°35' E 037°45'7 6.9
2016-Jun-18 18:29N 44°35' E 037°55'0 0.1
2016-Jun-18 17:23N 44°35' E 037°55'0 0.0
2016-Jun-18 16:32N 44°35' E 037°55'0 0.0
2016-Jun-18 15:32N 44°35' E 037°55'0 0.0
2016-Jun-18 14:32N 44°35' E 037°55'0 0.0
2016-Jun-18 13:32N 44°35' E 037°55'0 0.0
2016-Jun-18 12:32N 44°35' E 037°55'0 0.0
2016-Jun-18 11:32N 44°35' E 037°55'0 0.0
2016-Jun-18 10:32N 44°35' E 037°55'0 0.1
2016-Jun-18 09:32N 44°35' E 037°55'0 0.0
2016-Jun-18 08:32N 44°35' E 037°55'0 0.1
2016-Jun-18 07:32N 44°35' E 037°55'0 0.0
2016-Jun-18 06:32N 44°35' E 037°55'0 0.0
2016-Jun-18 05:32N 44°35' E 037°55'0 0.0
2016-Jun-18 04:29N 44°35' E 037°55'0 0.0
2016-Jun-18 03:32N 44°35' E 037°55'0 0.0
2016-Jun-18 02:32N 44°35' E 037°55'0 0.0
2016-Jun-18 01:32N 44°35' E 037°55'0 0.0
2016-Jun-18 00:32N 44°35' E 037°55'0 0.0
2016-Jun-17 23:32N 44°35' E 037°55'0 0.0
2016-Jun-17 22:32N 44°35' E 037°55'0 0.0
2016-Jun-17 21:32N 44°35' E 037°55'0 0.0
2016-Jun-17 20:32N 44°35' E 037°55'0 0.0
2016-Jun-17 19:32N 44°35' E 037°55'0 0.2
2016-Jun-17 18:29N 44°35' E 037°55'0 0.1
2016-Jun-17 17:32N 44°35' E 037°55'0 0.0
2016-Jun-17 16:32N 44°35' E 037°55'0 0.0
2016-Jun-17 15:32N 44°35' E 037°55'0 0.0
2016-Jun-17 14:32N 44°35' E 037°55'0 0.0
2016-Jun-17 13:32N 44°35' E 037°55'0 0.1
2016-Jun-17 12:32N 44°35' E 037°55'0 0.0
2016-Jun-17 11:32N 44°35' E 037°55'0 0.0
2016-Jun-17 10:32N 44°35' E 037°55'0 0.0
2016-Jun-17 09:32N 44°35' E 037°55'0 0.0
2016-Jun-17 08:32N 44°35' E 037°55'0 0.0
2016-Jun-17 07:32N 44°35' E 037°55'0 0.0
2016-Jun-17 06:32N 44°35' E 037°55'0 0.0
2016-Jun-17 05:32N 44°35' E 037°55'0 0.0
2016-Jun-17 04:32N 44°35' E 037°55'0 0.0
2016-Jun-17 03:32N 44°35' E 037°55'0 0.0
2016-Jun-17 02:32N 44°35' E 037°55'0 0.0
2016-Jun-17 01:32N 44°35' E 037°55'0 0.0
2016-Jun-17 00:32N 44°35' E 037°55'0 0.0
2016-Jun-16 23:32N 44°35' E 037°55'0 0.0
2016-Jun-16 22:32N 44°35' E 037°55'0 0.0
2016-Jun-16 21:32N 44°35' E 037°55'0 0.0
2016-Jun-16 20:26N 44°35' E 037°55'0 0.0
2016-Jun-16 19:32N 44°35' E 037°55'0 0.0
2016-Jun-16 18:29N 44°35' E 037°55'0 0.0
2016-Jun-16 17:32N 44°35' E 037°55'0 0.0
2016-Jun-16 16:32N 44°35' E 037°55'0 0.0
2016-Jun-16 15:32N 44°35' E 037°55'0 0.0
2016-Jun-16 14:32N 44°35' E 037°55'0 0.0
2016-Jun-16 13:32N 44°35' E 037°55'0 0.0
2016-Jun-16 12:32N 44°35' E 037°55'0 0.0
2016-Jun-16 11:32N 44°35' E 037°55'0 0.0
2016-Jun-16 10:32N 44°35' E 037°55'0 0.0
2016-Jun-16 09:32N 44°35' E 037°55'0 0.0
2016-Jun-16 08:32N 44°35' E 037°55'0 0.1
2016-Jun-16 07:32N 44°35' E 037°55'0 0.1
2016-Jun-16 06:32N 44°35' E 037°55'0 0.0
2016-Jun-16 05:32N 44°35' E 037°55'0 0.0
2016-Jun-16 04:32N 44°35' E 037°55'0 0.0
2016-Jun-16 03:32N 44°35' E 037°55'0 0.0
2016-Jun-16 02:32N 44°35' E 037°55'0 0.1
2016-Jun-16 01:32N 44°35' E 037°55'0 0.0
2016-Jun-16 00:31N 44°35' E 037°55'0 0.0
2016-Jun-15 23:32N 44°35' E 037°55'0 0.0
2016-Jun-15 22:23N 44°35' E 037°55'0 0.0
2016-Jun-15 21:32N 44°35' E 037°55'0 0.0
2016-Jun-15 20:32N 44°35' E 037°55'0 0.1
2016-Jun-15 19:31N 44°35' E 037°55'0 0.1
2016-Jun-15 18:32N 44°35' E 037°55'0 0.2
2016-Jun-15 17:31N 44°35' E 037°55'0 0.0
2016-Jun-15 16:32N 44°35' E 037°55'0 0.0
2016-Jun-15 15:32N 44°35' E 037°55'0 0.0
2016-Jun-15 14:31N 44°35' E 037°55'0 0.1
2016-Jun-15 13:32N 44°35' E 037°55'0 0.0
2016-Jun-15 12:31N 44°35' E 037°55'0 0.0
2016-Jun-15 11:31N 44°35' E 037°55'0 0.1
2016-Jun-15 10:32N 44°35' E 037°55'0 0.0
2016-Jun-15 09:31N 44°35' E 037°55'0 0.0
2016-Jun-15 08:32N 44°35' E 037°55'0 0.0
2016-Jun-15 07:31N 44°35' E 037°55'0 0.0
2016-Jun-15 06:31N 44°35' E 037°55'0 0.0
2016-Jun-15 05:31N 44°35' E 037°55'0 0.0
2016-Jun-15 04:32N 44°35' E 037°55'0 0.0
2016-Jun-15 03:31N 44°35' E 037°55'0 0.0
2016-Jun-15 02:31N 44°35' E 037°55'0 0.0
2016-Jun-15 01:31N 44°35' E 037°55'0 0.0
2016-Jun-15 00:31N 44°35' E 037°55'0 0.0
2016-Jun-14 23:31N 44°35' E 037°55'0 0.0
2016-Jun-14 22:31N 44°35' E 037°55'0 0.0
2016-Jun-14 21:31N 44°35' E 037°55'0 0.0
2016-Jun-14 20:31N 44°35' E 037°55'0 0.0
2016-Jun-14 19:23N 44°35' E 037°55'0 0.0
2016-Jun-14 18:31N 44°35' E 037°55'0 0.0
2016-Jun-14 17:31N 44°35' E 037°55'0 0.0
2016-Jun-14 16:31N 44°35' E 037°55'0 0.0
2016-Jun-14 15:31N 44°35' E 037°55'0 0.0
2016-Jun-14 14:31N 44°35' E 037°55'0 0.0
2016-Jun-14 13:31N 44°35' E 037°55'0 0.0
2016-Jun-14 12:31N 44°35' E 037°55'0 0.1
2016-Jun-14 11:31N 44°35' E 037°55'0 0.0
2016-Jun-14 10:31N 44°35' E 037°55'0 0.0
2016-Jun-14 09:31N 44°35' E 037°55'0 0.0
2016-Jun-14 08:31N 44°35' E 037°55'0 0.0
2016-Jun-14 07:28N 44°35' E 037°55'0 0.0
2016-Jun-14 05:31N 44°35' E 037°55'0 0.2
2016-Jun-14 04:31N 44°35' E 037°55'0 0.1
2016-Jun-14 03:31N 44°35' E 037°55'0 0.2
2016-Jun-14 02:31N 44°35' E 037°55'0 0.0
2016-Jun-14 01:31N 44°35' E 037°55'0 0.0
2016-Jun-14 00:31N 44°35' E 037°55'0 0.0
2016-Jun-13 23:31N 44°35' E 037°55'0 0.0
2016-Jun-13 22:31N 44°35' E 037°55'0 0.0
2016-Jun-13 21:31N 44°35' E 037°55'0 0.0
2016-Jun-13 20:31N 44°35' E 037°55'0 0.0
2016-Jun-13 19:31N 44°35' E 037°55'0 0.0
2016-Jun-13 18:31N 44°35' E 037°55'0 0.0
2016-Jun-13 17:31N 44°35' E 037°55'0 0.0
2016-Jun-13 16:31N 44°35' E 037°55'0 0.0
2016-Jun-13 15:31N 44°35' E 037°55'0 0.0
2016-Jun-13 14:31N 44°35' E 037°55'0 0.0
2016-Jun-13 13:31N 44°35' E 037°55'0 0.0
2016-Jun-13 12:31N 44°35' E 037°55'0 0.0
2016-Jun-13 11:31N 44°35' E 037°55'0 0.0
2016-Jun-13 10:31N 44°35' E 037°55'0 0.0
2016-Jun-13 09:31N 44°35' E 037°55'0 0.0
2016-Jun-13 08:31N 44°35' E 037°55'0 0.0
2016-Jun-13 07:31N 44°35' E 037°55'0 0.0
2016-Jun-13 06:31N 44°35' E 037°55'0 0.0
2016-Jun-13 05:31N 44°35' E 037°55'0 0.0
2016-Jun-13 04:31N 44°35' E 037°55'0 0.0
2016-Jun-13 03:31N 44°35' E 037°55'0 0.0
2016-Jun-13 02:31N 44°35' E 037°55'  
Track history (hours):
 
Tides and Currents Weather Stations Pressure Air Temp Water Temp Dewpoint Dewpoint Depression Visibility Wind Speed Wind Dir Waves Ship Positions

Olib

Last reported at 2016-Jun-23 02:19 UTC. Time now 2016-Jun-25 00:00 UTC.
Position N 37°13' E 023°50'.

Length 247 m; draft 14.3 m.

Type: Ship. MMSI: 238252000.

Date/timePositionNaut miles runAvg speedWind from/ knotsBaromVisibWave heightAir tempDewpointWater temp
2016-Jun-23 02:19N 37°13' E 023°50'1013.1
2016-Jun-23 01:33N 37°21' E 023°57'2613.2
2016-Jun-22 23:33N 37°44' E 024°14'1313.1
2016-Jun-22 22:33N 37°51' E 024°27'  
2016-Jun-19 18:20N 44°33' E 037°39'4 5.1
2016-Jun-19 17:32N 44°36' E 037°43'1 0.5
2016-Jun-19 16:33N 44°36' E 037°44'1 1.4
2016-Jun-19 15:33N 44°36' E 037°42'1 0.9
2016-Jun-19 14:33N 44°37' E 037°43'1 1.2
2016-Jun-19 13:33N 44°36' E 037°42'2 0.1
2016-Jun-18 20:31N 44°35' E 037°39'4 4.5
2016-Jun-18 19:34N 44°35' E 037°45'7 6.9
2016-Jun-18 18:29N 44°35' E 037°55'0 0.1
2016-Jun-18 17:23N 44°35' E 037°55'0 0.0
2016-Jun-18 16:32N 44°35' E 037°55'0 0.0
2016-Jun-18 15:32N 44°35' E 037°55'0 0.0
2016-Jun-18 14:32N 44°35' E 037°55'0 0.0
2016-Jun-18 13:32N 44°35' E 037°55'0 0.0
2016-Jun-18 12:32N 44°35' E 037°55'0 0.0
2016-Jun-18 11:32N 44°35' E 037°55'0 0.0
2016-Jun-18 10:32N 44°35' E 037°55'0 0.1
2016-Jun-18 09:32N 44°35' E 037°55'0 0.0
2016-Jun-18 08:32N 44°35' E 037°55'0 0.1
2016-Jun-18 07:32N 44°35' E 037°55'0 0.0
2016-Jun-18 06:32N 44°35' E 037°55'0 0.0
2016-Jun-18 05:32N 44°35' E 037°55'0 0.0
2016-Jun-18 04:29N 44°35' E 037°55'0 0.0
2016-Jun-18 03:32N 44°35' E 037°55'0 0.0
2016-Jun-18 02:32N 44°35' E 037°55'0 0.0
2016-Jun-18 01:32N 44°35' E 037°55'0 0.0
2016-Jun-18 00:32N 44°35' E 037°55'0 0.0
2016-Jun-17 23:32N 44°35' E 037°55'0 0.0
2016-Jun-17 22:32N 44°35' E 037°55'0 0.0
2016-Jun-17 21:32N 44°35' E 037°55'0 0.0
2016-Jun-17 20:32N 44°35' E 037°55'0 0.0
2016-Jun-17 19:32N 44°35' E 037°55'0 0.2
2016-Jun-17 18:29N 44°35' E 037°55'0 0.1
2016-Jun-17 17:32N 44°35' E 037°55'0 0.0
2016-Jun-17 16:32N 44°35' E 037°55'0 0.0
2016-Jun-17 15:32N 44°35' E 037°55'0 0.0
2016-Jun-17 14:32N 44°35' E 037°55'0 0.0
2016-Jun-17 13:32N 44°35' E 037°55'0 0.1
2016-Jun-17 12:32N 44°35' E 037°55'0 0.0
2016-Jun-17 11:32N 44°35' E 037°55'0 0.0
2016-Jun-17 10:32N 44°35' E 037°55'0 0.0
2016-Jun-17 09:32N 44°35' E 037°55'0 0.0
2016-Jun-17 08:32N 44°35' E 037°55'0 0.0
2016-Jun-17 07:32N 44°35' E 037°55'0 0.0
2016-Jun-17 06:32N 44°35' E 037°55'0 0.0
2016-Jun-17 05:32N 44°35' E 037°55'0 0.0
2016-Jun-17 04:32N 44°35' E 037°55'0 0.0
2016-Jun-17 03:32N 44°35' E 037°55'0 0.0
2016-Jun-17 02:32N 44°35' E 037°55'0 0.0
2016-Jun-17 01:32N 44°35' E 037°55'0 0.0
2016-Jun-17 00:32N 44°35' E 037°55'0 0.0
2016-Jun-16 23:32N 44°35' E 037°55'0 0.0
2016-Jun-16 22:32N 44°35' E 037°55'0 0.0
2016-Jun-16 21:32N 44°35' E 037°55'0 0.0
2016-Jun-16 20:26N 44°35' E 037°55'0 0.0
2016-Jun-16 19:32N 44°35' E 037°55'0 0.0
2016-Jun-16 18:29N 44°35' E 037°55'0 0.0
2016-Jun-16 17:32N 44°35' E 037°55'0 0.0
2016-Jun-16 16:32N 44°35' E 037°55'0 0.0
2016-Jun-16 15:32N 44°35' E 037°55'0 0.0
2016-Jun-16 14:32N 44°35' E 037°55'0 0.0
2016-Jun-16 13:32N 44°35' E 037°55'0 0.0
2016-Jun-16 12:32N 44°35' E 037°55'0 0.0
2016-Jun-16 11:32N 44°35' E 037°55'0 0.0
2016-Jun-16 10:32N 44°35' E 037°55'0 0.0
2016-Jun-16 09:32N 44°35' E 037°55'0 0.0
2016-Jun-16 08:32N 44°35' E 037°55'0 0.1
2016-Jun-16 07:32N 44°35' E 037°55'0 0.1
2016-Jun-16 06:32N 44°35' E 037°55'0 0.0
2016-Jun-16 05:32N 44°35' E 037°55'0 0.0
2016-Jun-16 04:32N 44°35' E 037°55'0 0.0
2016-Jun-16 03:32N 44°35' E 037°55'0 0.0
2016-Jun-16 02:32N 44°35' E 037°55'0 0.1
2016-Jun-16 01:32N 44°35' E 037°55'0 0.0
2016-Jun-16 00:31N 44°35' E 037°55'0 0.0
2016-Jun-15 23:32N 44°35' E 037°55'0 0.0
2016-Jun-15 22:23N 44°35' E 037°55'0 0.0
2016-Jun-15 21:32N 44°35' E 037°55'0 0.0
2016-Jun-15 20:32N 44°35' E 037°55'0 0.1
2016-Jun-15 19:31N 44°35' E 037°55'0 0.1
2016-Jun-15 18:32N 44°35' E 037°55'0 0.2
2016-Jun-15 17:31N 44°35' E 037°55'0 0.0
2016-Jun-15 16:32N 44°35' E 037°55'0 0.0
2016-Jun-15 15:32N 44°35' E 037°55'0 0.0
2016-Jun-15 14:31N 44°35' E 037°55'0 0.1
2016-Jun-15 13:32N 44°35' E 037°55'0 0.0
2016-Jun-15 12:31N 44°35' E 037°55'0 0.0
2016-Jun-15 11:31N 44°35' E 037°55'0 0.1
2016-Jun-15 10:32N 44°35' E 037°55'0 0.0
2016-Jun-15 09:31N 44°35' E 037°55'0 0.0
2016-Jun-15 08:32N 44°35' E 037°55'0 0.0
2016-Jun-15 07:31N 44°35' E 037°55'0 0.0
2016-Jun-15 06:31N 44°35' E 037°55'0 0.0
2016-Jun-15 05:31N 44°35' E 037°55'0 0.0
2016-Jun-15 04:32N 44°35' E 037°55'0 0.0
2016-Jun-15 03:31N 44°35' E 037°55'0 0.0
2016-Jun-15 02:31N 44°35' E 037°55'0 0.0
2016-Jun-15 01:31N 44°35' E 037°55'0 0.0
2016-Jun-15 00:31N 44°35' E 037°55'0 0.0
2016-Jun-14 23:31N 44°35' E 037°55'0 0.0
2016-Jun-14 22:31N 44°35' E 037°55'0 0.0
2016-Jun-14 21:31N 44°35' E 037°55'0 0.0
2016-Jun-14 20:31N 44°35' E 037°55'0 0.0
2016-Jun-14 19:23N 44°35' E 037°55'0 0.0
2016-Jun-14 18:31N 44°35' E 037°55'0 0.0
2016-Jun-14 17:31N 44°35' E 037°55'0 0.0
2016-Jun-14 16:31N 44°35' E 037°55'0 0.0
2016-Jun-14 15:31N 44°35' E 037°55'0 0.0
2016-Jun-14 14:31N 44°35' E 037°55'0 0.0
2016-Jun-14 13:31N 44°35' E 037°55'0 0.0
2016-Jun-14 12:31N 44°35' E 037°55'0 0.1
2016-Jun-14 11:31N 44°35' E 037°55'0 0.0
2016-Jun-14 10:31N 44°35' E 037°55'0 0.0
2016-Jun-14 09:31N 44°35' E 037°55'0 0.0
2016-Jun-14 08:31N 44°35' E 037°55'0 0.0
2016-Jun-14 07:28N 44°35' E 037°55'0 0.0
2016-Jun-14 05:31N 44°35' E 037°55'0 0.2
2016-Jun-14 04:31N 44°35' E 037°55'0 0.1
2016-Jun-14 03:31N 44°35' E 037°55'0 0.2
2016-Jun-14 02:31N 44°35' E 037°55'0 0.0
2016-Jun-14 01:31N 44°35' E 037°55'0 0.0
2016-Jun-14 00:31N 44°35' E 037°55'0 0.0
2016-Jun-13 23:31N 44°35' E 037°55'0 0.0
2016-Jun-13 22:31N 44°35' E 037°55'0 0.0
2016-Jun-13 21:31N 44°35' E 037°55'0 0.0
2016-Jun-13 20:31N 44°35' E 037°55'0 0.0
2016-Jun-13 19:31N 44°35' E 037°55'0 0.0
2016-Jun-13 18:31N 44°35' E 037°55'0 0.0
2016-Jun-13 17:31N 44°35' E 037°55'0 0.0
2016-Jun-13 16:31N 44°35' E 037°55'0 0.0
2016-Jun-13 15:31N 44°35' E 037°55'0 0.0
2016-Jun-13 14:31N 44°35' E 037°55'0 0.0
2016-Jun-13 13:31N 44°35' E 037°55'0 0.0
2016-Jun-13 12:31N 44°35' E 037°55'0 0.0
2016-Jun-13 11:31N 44°35' E 037°55'0 0.0
2016-Jun-13 10:31N 44°35' E 037°55'0 0.0
2016-Jun-13 09:31N 44°35' E 037°55'0 0.0
2016-Jun-13 08:31N 44°35' E 037°55'0 0.0
2016-Jun-13 07:31N 44°35' E 037°55'0 0.0
2016-Jun-13 06:31N 44°35' E 037°55'0 0.0
2016-Jun-13 05:31N 44°35' E 037°55'0 0.0
2016-Jun-13 04:31N 44°35' E 037°55'0 0.0
2016-Jun-13 03:31N 44°35' E 037°55'0 0.0
2016-Jun-13 02:31N 44°35' E 037°55'  

Dump ship's entire track history